Time;durP1;ratioP1;P1;durP2;ratioP2;P2;SDS_P1;SDS_P2;PMS_P1;PMS_P2;Temp;Humidity;BMP_temperature;BMP_pressure;BME280_temperature;BME280_humidity;BME280_pressure;Samples;Min_cycle;Max_cycle;Signal;HPM_P1;HPM_P2
2023/10/10 00:00:27;;;;;;;22.58;15.55;;;15.00;99.90;;;;;;5073555;28;20198;-48
2023/10/10 00:02:54;;;;;;;23.52;16.08;;;15.00;99.90;;;;;;5073926;28;20163;-48
2023/10/10 00:05:33;;;;;;;29.42;16.33;;;;;;;;;;5055585;28;20192;-49
2023/10/10 00:07:59;;;;;;;23.88;14.43;;;15.00;99.90;;;;;;5073819;28;20170;-49
2023/10/10 00:10:27;;;;;;;21.75;15.57;;;15.00;99.90;;;;;;5073799;28;20539;-48
2023/10/10 00:12:53;;;;;;;24.83;14.95;;;14.90;99.90;;;;;;5072497;28;20641;-49
2023/10/10 00:15:24;;;;;;;25.50;17.02;;;14.90;99.90;;;;;;5073429;28;20169;-49
2023/10/10 00:17:50;;;;;;;22.17;15.75;;;14.90;99.90;;;;;;5073362;28;20162;-48
2023/10/10 00:20:21;;;;;;;22.58;16.08;;;14.90;99.90;;;;;;5073674;28;20209;-48
2023/10/10 00:22:49;;;;;;;25.35;17.13;;;14.90;99.90;;;;;;5073246;28;20173;-48
2023/10/10 00:25:28;;;;;;;27.10;17.73;;;14.90;99.90;;;;;;5073186;28;20178;-48
2023/10/10 00:27:58;;;;;;;21.20;15.45;;;14.90;99.90;;;;;;5073336;28;20228;-48
2023/10/10 00:30:31;;;;;;;25.67;16.27;;;14.90;99.90;;;;;;5073327;28;20166;-48
2023/10/10 00:32:57;;;;;;;16.25;12.23;;;14.90;99.90;;;;;;5055102;28;20170;-48
2023/10/10 00:35:23;;;;;;;19.92;15.43;;;14.90;99.90;;;;;;5073009;28;20176;-48
2023/10/10 00:37:49;;;;;;;24.15;15.18;;;14.90;99.90;;;;;;5073035;28;20166;-48
2023/10/10 00:40:26;;;;;;;22.17;15.23;;;14.90;99.90;;;;;;5073063;28;20213;-48
2023/10/10 00:42:55;;;;;;;22.60;14.98;;;14.90;99.90;;;;;;5072894;28;20241;-48
2023/10/10 00:45:21;;;;;;;20.10;13.77;;;14.90;99.90;;;;;;5072790;28;20265;-48
2023/10/10 00:47:49;;;;;;;16.77;12.48;;;14.80;99.90;;;;;;5054714;28;20689;-48
2023/10/10 00:50:18;;;;;;;23.45;13.82;;;14.70;99.90;;;;;;5072631;28;20614;-48
2023/10/10 00:52:48;;;;;;;18.70;13.93;;;14.70;99.90;;;;;;5072701;28;20162;-48
2023/10/10 00:55:14;;;;;;;18.73;12.52;;;14.70;99.90;;;;;;5072917;28;20312;-48
2023/10/10 00:57:43;;;;;;;24.17;13.57;;;14.70;99.90;;;;;;5072632;28;20213;-48
2023/10/10 01:00:15;;;;;;;20.50;12.75;;;14.70;99.90;;;;;;5072469;28;20213;-48
2023/10/10 01:02:42;;;;;;;27.42;14.23;;;14.60;99.90;;;;;;5072421;28;20158;-49
2023/10/10 01:05:12;;;;;;;21.63;13.63;;;14.70;99.90;;;;;;5072671;28;20166;-48
2023/10/10 01:07:38;;;;;;;21.63;14.18;;;14.60;99.90;;;;;;5072365;28;20496;-48
2023/10/10 01:10:16;;;;;;;23.13;15.55;;;14.60;99.90;;;;;;5072148;28;20169;-48
2023/10/10 01:12:44;;;;;;;25.88;16.08;;;14.70;99.90;;;;;;5072493;28;20182;-48
2023/10/10 01:15:25;;;;;;;21.85;15.25;;;14.60;99.90;;;;;;5072203;28;20154;-50
2023/10/10 01:17:51;;;;;;;27.45;16.30;;;14.60;99.90;;;;;;5072166;28;20651;-48
2023/10/10 01:20:26;;;;;;;27.98;14.68;;;14.60;99.90;;;;;;5071985;28;20213;-48
2023/10/10 01:22:56;;;;;;;22.30;14.70;;;14.60;99.90;;;;;;5072003;28;20177;-48
2023/10/10 01:26:05;;;;;;;19.98;13.48;;;14.60;99.90;;;;;;5072164;28;20239;-48
2023/10/10 01:28:59;;;;;;;21.92;14.40;;;14.60;99.90;;;;;;5067761;28;20188;-48
2023/10/10 01:31:10;;;;;;;19.52;13.77;;;14.50;99.90;;;;;;5060939;28;20208;-48
2023/10/10 01:33:36;;;;;;;20.85;14.25;;;14.50;99.90;;;;;;5071887;28;20162;-48
2023/10/10 01:36:11;;;;;;;19.63;13.73;;;14.40;99.90;;;;;;5072527;28;20256;-48
2023/10/10 01:38:55;;;;;;;21.65;13.27;;;14.30;99.90;;;;;;5071936;28;20213;-48
2023/10/10 01:41:31;;;;;;;21.98;14.68;;;14.20;99.90;;;;;;5071949;28;20169;-48
2023/10/10 01:44:08;;;;;;;21.77;14.18;;;14.30;99.90;;;;;;5071929;28;20192;-48
2023/10/10 01:46:35;;;;;;;22.23;14.20;;;14.30;99.90;;;;;;5071615;28;20216;-48
2023/10/10 01:49:06;;;;;;;27.50;14.77;;;14.30;99.90;;;;;;5072337;28;20170;-48
2023/10/10 01:51:34;;;;;;;25.45;14.43;;;14.30;99.90;;;;;;5072015;28;20170;-48
2023/10/10 01:54:12;;;;;;;18.98;13.93;;;14.20;99.90;;;;;;5072069;28;20162;-48
2023/10/10 01:56:38;;;;;;;23.45;13.85;;;14.20;99.90;;;;;;5071572;28;20650;-48
2023/10/10 01:59:04;;;;;;;22.27;13.50;;;14.20;99.90;;;;;;5071822;28;20217;-49
2023/10/10 02:01:31;;;;;;;19.35;13.75;;;14.30;99.90;;;;;;5071961;28;20526;-48
2023/10/10 02:03:58;;;;;;;23.52;13.27;;;14.30;99.90;;;;;;5054350;28;20182;-48
2023/10/10 02:06:28;;;;;;;20.67;13.90;;;14.20;99.90;;;;;;5071680;28;20170;-48
2023/10/10 02:09:00;;;;;;;18.70;13.38;;;14.30;99.90;;;;;;5071737;28;20261;-48
2023/10/10 02:11:26;;;;;;;18.80;13.48;;;14.30;99.90;;;;;;5071740;28;20169;-48
2023/10/10 02:13:53;;;;;;;21.50;13.20;;;14.30;99.90;;;;;;5071467;28;20193;-48
2023/10/10 02:16:23;;;;;;;18.77;11.98;;;14.20;99.90;;;;;;5071312;28;20584;-48
2023/10/10 02:18:51;;;;;;;25.15;14.20;;;14.20;99.90;;;;;;5071277;28;20186;-48
2023/10/10 02:21:43;;;;;;;21.58;14.05;;;14.20;99.90;;;;;;5071441;28;20318;-48
2023/10/10 02:26:53;;;;;;;17.48;13.10;;;14.10;99.90;;;;;;5071401;28;20261;-49
2023/10/10 02:29:21;;;;;;;19.63;11.38;;;;;;;;;;5071506;28;20506;-49
2023/10/10 02:32:06;;;;;;;17.52;11.90;;;14.10;99.90;;;;;;5071545;28;20257;-48
2023/10/10 02:34:34;;;;;;;18.15;13.15;;;14.10;99.90;;;;;;5071382;28;20199;-48
2023/10/10 02:37:41;;;;;;;29.52;13.98;;;14.10;99.90;;;;;;5075439;28;20260;-48
2023/10/10 02:40:16;;;;;;;17.67;13.13;;;14.10;99.90;;;;;;5073159;28;20264;-47
2023/10/10 02:43:18;;;;;;;17.60;12.38;;;14.00;99.90;;;;;;5074768;28;20200;-49
2023/10/10 02:45:37;;;;;;;18.48;12.48;;;14.00;99.90;;;;;;5074761;28;20668;-49
2023/10/10 02:48:07;;;;;;;18.98;12.23;;;14.00;99.90;;;;;;5075047;28;20174;-49
2023/10/10 02:50:39;;;;;;;18.38;12.80;;;14.00;99.90;;;;;;5075242;28;20170;-48
2023/10/10 02:53:08;;;;;;;17.02;12.50;;;14.00;99.90;;;;;;5074942;28;20214;-49
2023/10/10 02:55:41;;;;;;;16.48;13.00;;;14.00;99.90;;;;;;5074922;28;20158;-49
2023/10/10 02:58:20;;;;;;;16.83;11.60;;;13.90;99.90;;;;;;5075072;28;20174;-48
2023/10/10 03:00:49;;;;;;;15.10;10.93;;;13.90;99.90;;;;;;5075092;28;20192;-49
2023/10/10 03:03:18;;;;;;;15.30;11.25;;;13.90;99.90;;;;;;5074732;28;20197;-49
2023/10/10 03:05:58;;;;;;;10.13;8.82;;;13.90;99.90;;;;;;5074915;28;20178;-48
2023/10/10 03:08:34;;;;;;;12.45;10.18;;;13.90;99.90;;;;;;5074651;28;20162;-49
2023/10/10 03:11:00;;;;;;;20.35;12.52;;;13.80;99.90;;;;;;5075008;28;20169;-48
2023/10/10 03:13:28;;;;;;;19.23;12.70;;;13.80;99.90;;;;;;5074522;28;20249;-48
2023/10/10 03:15:56;;;;;;;18.02;11.55;;;13.70;99.90;;;;;;5074749;28;20251;-49
2023/10/10 03:18:29;;;;;;;16.15;11.73;;;13.80;99.90;;;;;;5074422;28;20167;-49
2023/10/10 03:23:52;;;;;;;20.30;11.80;;;13.80;99.90;;;;;;5074588;28;20331;-48
2023/10/10 03:26:51;;;;;;;16.02;11.02;;;13.70;99.90;;;;;;5074241;28;20178;-48
2023/10/10 03:29:11;;;;;;;14.27;11.57;;;13.70;99.90;;;;;;5074079;28;20235;-50
2023/10/10 03:31:47;;;;;;;17.17;12.43;;;13.70;99.90;;;;;;5074551;28;20602;-50
2023/10/10 03:34:29;;;;;;;16.25;12.63;;;13.70;99.90;;;;;;5056241;28;20530;-49
2023/10/10 03:37:42;;;;;;;19.27;11.93;;;13.60;99.90;;;;;;5074353;28;20564;-48
2023/10/10 03:39:53;;;;;;;21.60;11.85;;;13.60;99.90;;;;;;5063247;28;20225;-49
2023/10/10 05:23:48;;;;;;;16.05;12.52;;;13.10;99.90;;;;;;5032238;28;20693;-50
2023/10/10 05:26:14;;;;;;;22.30;12.75;;;13.10;99.90;;;;;;5032190;28;20167;-50
2023/10/10 05:28:40;;;;;;;19.77;13.88;;;13.10;99.90;;;;;;5032139;28;20163;-50
2023/10/10 05:31:09;;;;;;;21.90;13.30;;;13.10;99.90;;;;;;5032041;28;20266;-49
2023/10/10 05:33:36;;;;;;;18.15;13.70;;;13.10;99.90;;;;;;5032023;28;20653;-50
2023/10/10 05:36:08;;;;;;;20.92;13.52;;;13.20;99.90;;;;;;5032007;28;20186;-50
2023/10/10 05:38:39;;;;;;;21.50;13.07;;;13.20;99.90;;;;;;5031935;28;20199;-50
2023/10/10 05:41:10;;;;;;;27.15;17.13;;;13.20;99.90;;;;;;5031975;28;20578;-50
2023/10/10 05:43:36;;;;;;;16.95;11.77;;;13.20;99.90;;;;;;5032148;28;20175;-50
2023/10/10 05:46:03;;;;;;;17.45;12.57;;;13.20;99.90;;;;;;5039020;28;20214;-49
2023/10/10 05:48:31;;;;;;;18.88;13.63;;;13.20;99.90;;;;;;5072070;28;20166;-50
2023/10/10 05:51:00;;;;;;;25.08;14.98;;;13.30;99.90;;;;;;5072299;28;20172;-50
2023/10/10 05:53:27;;;;;;;19.20;13.23;;;13.30;99.90;;;;;;5072163;28;20624;-49
2023/10/10 05:55:58;;;;;;;26.15;15.98;;;13.30;99.90;;;;;;5071536;28;20170;-49
2023/10/10 05:58:25;;;;;;;18.10;12.95;;;13.20;99.90;;;;;;5071397;28;20564;-50
2023/10/10 06:00:51;;;;;;;39.45;21.35;;;13.10;99.90;;;;;;5071414;28;20182;-49
2023/10/10 06:03:17;;;;;;;20.98;14.88;;;13.20;99.90;;;;;;5071756;28;20170;-50
2023/10/10 06:05:49;;;;;;;19.83;13.80;;;13.10;99.90;;;;;;5071693;28;20299;-50
2023/10/10 06:08:15;;;;;;;17.70;12.68;;;13.20;99.90;;;;;;5053536;28;20177;-50
2023/10/10 06:10:41;;;;;;;20.98;12.60;;;13.10;99.90;;;;;;5070686;28;20530;-50
2023/10/10 06:13:07;;;;;;;22.20;13.93;;;13.10;99.90;;;;;;5071480;28;20243;-50
2023/10/10 06:15:34;;;;;;;16.30;12.00;;;13.20;99.90;;;;;;5071364;28;20193;-50
2023/10/10 06:18:13;;;;;;;17.77;13.13;;;13.10;99.90;;;;;;5071662;28;20219;-49
2023/10/10 06:20:42;;;;;;;20.63;13.38;;;13.20;99.90;;;;;;5071525;28;20300;-50
2023/10/10 06:23:17;;;;;;;23.88;13.18;;;13.20;99.90;;;;;;5071522;28;20165;-49
2023/10/10 06:25:43;;;;;;;20.80;13.30;;;13.30;99.90;;;;;;5071286;28;20553;-50
2023/10/10 06:28:26;;;;;;;22.30;12.38;;;13.40;99.90;;;;;;5071165;28;20633;-50
2023/10/10 06:30:55;;;;;;;19.55;12.93;;;13.40;99.90;;;;;;5071258;28;20201;-50
2023/10/10 06:33:28;;;;;;;20.83;11.77;;;13.60;99.90;;;;;;5071239;28;20170;-50
2023/10/10 06:41:35;;;;;;;16.05;10.95;;;13.70;99.90;;;;;;5071871;28;20180;-51
2023/10/10 06:44:01;;;;;;;17.85;10.10;;;13.70;99.90;;;;;;5071364;28;20181;-49
2023/10/10 06:46:32;;;;;;;16.08;9.40;;;13.80;99.90;;;;;;5071338;28;20240;-50
2023/10/10 06:49:04;;;;;;;16.17;10.68;;;13.80;99.90;;;;;;5071761;28;20174;-50
2023/10/10 06:51:30;;;;;;;19.50;11.48;;;14.00;99.90;;;;;;5071399;28;20182;-50
2023/10/10 06:53:56;;;;;;;16.73;11.15;;;14.00;99.90;;;;;;5071373;28;20162;-49
2023/10/10 06:56:44;;;;;;;19.40;11.05;;;14.10;99.90;;;;;;5071228;28;20170;-50
2023/10/10 06:59:16;;;;;;;16.42;9.38;;;14.10;99.90;;;;;;5070739;28;20267;-49
2023/10/10 07:01:45;;;;;;;15.60;9.63;;;14.20;99.90;;;;;;5070860;28;20656;-50
2023/10/10 07:04:13;;;;;;;12.55;8.80;;;14.30;99.90;;;;;;5071171;28;20219;-49
2023/10/10 07:06:43;;;;;;;15.15;9.50;;;;;;;;;;5070667;28;20170;-49
2023/10/10 07:09:15;;;;;;;13.60;8.70;;;14.60;99.90;;;;;;5050661;28;20645;-49
2023/10/10 07:11:41;;;;;;;16.88;9.98;;;14.60;99.90;;;;;;5051052;28;20175;-50
2023/10/10 07:14:11;;;;;;;38.65;15.60;;;14.70;99.90;;;;;;5050939;28;20171;-50
2023/10/10 07:16:42;;;;;;;23.67;12.88;;;14.80;99.90;;;;;;5051060;28;20170;-49
2023/10/10 07:19:23;;;;;;;33.20;13.27;;;14.90;99.90;;;;;;5050918;28;20248;-49
2023/10/10 07:21:51;;;;;;;20.08;9.85;;;15.00;99.90;;;;;;5052359;28;20228;-49
2023/10/10 07:24:17;;;;;;;20.40;10.98;;;15.00;99.90;;;;;;5054620;28;20169;-49
2023/10/10 07:26:45;;;;;;;50.97;23.05;;;15.00;99.90;;;;;;5054553;28;20175;-49
2023/10/10 07:29:27;;;;;;;40.03;19.90;;;15.10;99.90;;;;;;5054611;28;20258;-49
2023/10/10 07:32:04;;;;;;;27.80;14.52;;;15.20;99.90;;;;;;5054132;28;20247;-49
2023/10/10 07:34:35;;;;;;;28.80;16.23;;;;;;;;;;5054600;28;20206;-49
2023/10/10 07:37:09;;;;;;;16.52;9.60;;;15.30;99.90;;;;;;5054357;28;20178;-49
2023/10/10 07:39:55;;;;;;;23.85;14.75;;;15.40;99.90;;;;;;5054311;28;20288;-49
2023/10/10 07:42:27;;;;;;;15.82;9.18;;;15.60;99.90;;;;;;5054291;28;20181;-50
2023/10/10 07:44:54;;;;;;;16.70;9.18;;;15.60;99.90;;;;;;5053921;28;20657;-49
2023/10/10 07:47:26;;;;;;;13.90;9.10;;;15.70;99.90;;;;;;5053831;28;20227;-50
2023/10/10 07:49:56;;;;;;;15.05;11.65;;;15.70;99.90;;;;;;5053810;28;20173;-49
2023/10/10 07:52:22;;;;;;;14.80;8.70;;;15.90;99.90;;;;;;5053880;28;20174;-50
2023/10/10 07:54:53;;;;;;;12.45;9.25;;;16.00;99.90;;;;;;5054034;28;20214;-49
2023/10/10 07:57:29;;;;;;;12.52;9.00;;;16.10;99.90;;;;;;5053815;28;20500;-49
2023/10/10 07:59:57;;;;;;;14.00;9.77;;;16.20;99.90;;;;;;5054207;28;20553;-49
2023/10/10 08:02:31;;;;;;;11.90;8.38;;;16.40;99.90;;;;;;5053921;28;20167;-50
2023/10/10 08:05:01;;;;;;;13.73;8.05;;;16.50;99.90;;;;;;5054188;28;20174;-49
2023/10/10 08:07:28;;;;;;;15.07;7.57;;;16.70;99.90;;;;;;5054234;28;20167;-50
2023/10/10 08:10:13;;;;;;;10.65;7.60;;;16.70;99.90;;;;;;5053758;28;20249;-49
2023/10/10 08:12:43;;;;;;;16.90;7.45;;;16.90;99.90;;;;;;5053643;28;20175;-50
2023/10/10 08:15:24;;;;;;;11.73;7.32;;;16.90;99.90;;;;;;5053504;28;20167;-49
2023/10/10 08:17:54;;;;;;;13.68;8.32;;;16.90;99.90;;;;;;5053706;28;20166;-50
2023/10/10 08:23:06;;;;;;;14.57;8.43;;;17.50;99.90;;;;;;5053677;28;20177;-50
2023/10/10 08:25:33;;;;;;;10.50;7.50;;;17.70;99.90;;;;;;5053483;28;20563;-50
2023/10/10 08:27:59;;;;;;;15.45;8.45;;;17.90;99.90;;;;;;5053829;28;20163;-50
2023/10/10 08:30:28;;;;;;;14.95;7.80;;;18.10;99.90;;;;;;5053073;28;20175;-50
2023/10/10 08:32:58;;;;;;;8.93;5.53;;;18.20;99.90;;;;;;5052367;28;20541;-49
2023/10/10 08:35:27;;;;;;;9.15;6.57;;;18.30;99.90;;;;;;5053280;28;20170;-50
2023/10/10 08:37:53;;;;;;;9.02;5.85;;;18.30;99.90;;;;;;5053196;28;20174;-49
2023/10/10 08:40:23;;;;;;;10.73;5.90;;;18.40;99.90;;;;;;5052841;28;20202;-50
2023/10/10 08:42:50;;;;;;;14.13;6.40;;;18.50;99.90;;;;;;5052832;28;20163;-50
2023/10/10 08:45:22;;;;;;;11.40;6.53;;;18.60;99.90;;;;;;5053142;28;20183;-50
2023/10/10 08:47:58;;;;;;;9.02;5.63;;;18.60;99.90;;;;;;5034743;28;20678;-51
2023/10/10 08:50:24;;;;;;;13.07;6.20;;;18.60;99.90;;;;;;5052721;28;20209;-49
2023/10/10 08:52:51;;;;;;;9.60;5.50;;;18.80;99.90;;;;;;5052658;28;20171;-49
2023/10/10 08:55:19;;;;;;;9.88;6.18;;;18.90;99.90;;;;;;5052663;28;20159;-49
2023/10/10 08:57:45;;;;;;;9.88;5.95;;;19.00;99.90;;;;;;5052563;28;20258;-50
2023/10/10 09:00:11;;;;;;;8.60;5.28;;;19.00;99.90;;;;;;5052457;28;20670;-50
2023/10/10 09:02:39;;;;;;;10.65;5.82;;;19.10;99.90;;;;;;5052664;28;20241;-50
2023/10/10 09:05:07;;;;;;;9.20;5.95;;;19.20;99.90;;;;;;5052738;28;20225;-50
2023/10/10 09:07:34;;;;;;;8.27;5.13;;;19.10;99.90;;;;;;5052425;28;20167;-49
2023/10/10 09:10:39;;;;;;;15.57;5.43;;;19.30;99.90;;;;;;5052435;28;20249;-49
2023/10/10 09:12:52;;;;;;;12.90;5.57;;;19.30;99.90;;;;;;5049065;28;20189;-49
2023/10/10 09:15:19;;;;;;;10.38;5.25;;;19.20;99.90;;;;;;5052257;28;20166;-49
2023/10/10 09:17:46;;;;;;;8.23;5.57;;;19.40;99.90;;;;;;5052163;28;20166;-49
2023/10/10 09:20:27;;;;;;;9.82;5.20;;;19.40;99.90;;;;;;5052142;28;20357;-49
2023/10/10 09:23:02;;;;;;;10.23;5.90;;;19.50;99.90;;;;;;5052260;28;20174;-49
2023/10/10 09:28:15;;;;;;;7.68;5.45;;;19.50;99.90;;;;;;5052330;28;20211;-51
2023/10/10 09:30:58;;;;;;;13.32;5.10;;;19.70;99.90;;;;;;5052268;28;20166;-49
2023/10/10 09:33:27;;;;;;;11.60;5.82;;;19.80;99.90;;;;;;5051841;28;20634;-50
2023/10/10 09:35:59;;;;;;;13.32;6.72;;;19.90;99.90;;;;;;5051792;28;20635;-52
2023/10/10 09:41:37;;;;;;;9.50;5.38;;;20.10;99.90;;;;;;5028483;28;20236;-50
2023/10/10 09:55:16;;;;;;;15.05;7.65;;;20.40;99.90;;;;;;5051970;28;20309;-49
2023/10/10 10:06:34;;;;;;;13.20;6.05;;;20.60;99.90;;;;;;5051163;28;20178;-49
2023/10/10 10:09:09;;;;;;;13.35;5.40;;;20.60;99.90;;;;;;5050603;28;20219;-48
2023/10/10 10:11:59;;;;;;;13.32;5.35;;;20.60;99.90;;;;;;5050679;28;20176;-50
2023/10/10 10:15:00;;;;;;;10.07;6.07;;;20.80;99.90;;;;;;5033464;28;20535;-49
2023/10/10 10:17:47;;;;;;;11.38;5.45;;;20.90;99.90;;;;;;5009281;28;20175;-47
2023/10/10 10:20:22;;;;;;;8.15;5.95;;;21.00;99.90;;;;;;5050907;28;20210;-49
2023/10/10 10:22:53;;;;;;;11.85;5.45;;;21.10;99.90;;;;;;5050809;28;20181;-49
2023/10/10 10:25:28;;;;;;;11.52;5.65;;;20.90;99.90;;;;;;5050568;28;20186;-52
2023/10/10 10:28:00;;;;;;;11.35;5.22;;;21.00;99.90;;;;;;5051509;28;20162;-52
2023/10/10 10:32:58;;;;;;;12.02;5.57;;;;;;;;;;5050931;28;20170;-49
2023/10/10 10:35:58;;;;;;;12.15;5.38;;;21.10;99.90;;;;;;5051291;28;20177;-48
2023/10/10 10:38:24;;;;;;;13.50;5.32;;;21.30;99.90;;;;;;5051382;28;20527;-48
2023/10/10 10:40:51;;;;;;;11.85;5.32;;;21.40;99.90;;;;;;5051363;28;20213;-49
2023/10/10 10:43:20;;;;;;;14.25;5.50;;;21.20;99.90;;;;;;5051423;28;20166;-49
2023/10/10 10:45:52;;;;;;;10.10;4.80;;;21.40;99.90;;;;;;5050993;28;20170;-49
2023/10/10 10:48:33;;;;;;;9.32;5.28;;;21.60;99.90;;;;;;5051017;28;20181;-49
2023/10/10 10:51:28;;;;;;;10.55;5.00;;;21.80;99.90;;;;;;5051728;28;20181;-49
2023/10/10 10:53:59;;;;;;;10.60;5.30;;;21.80;99.90;;;;;;5051224;28;20173;-49
2023/10/10 10:59:21;;;;;;;11.27;4.90;;;22.00;99.90;;;;;;5055127;28;20728;-49
2023/10/10 11:01:51;;;;;;;8.35;4.70;;;21.90;99.90;;;;;;5054867;28;20626;-49
2023/10/10 11:04:40;;;;;;;10.20;5.03;;;21.80;99.90;;;;;;5054812;28;20245;-49
2023/10/10 11:07:07;;;;;;;11.10;4.63;;;21.90;99.90;;;;;;5054842;28;20171;-48
2023/10/10 11:09:36;;;;;;;8.48;4.45;;;22.00;99.90;;;;;;5036759;28;20170;-49
2023/10/10 11:12:04;;;;;;;13.48;5.18;;;22.10;99.90;;;;;;5054808;28;20175;-49
2023/10/10 11:14:44;;;;;;;10.88;4.65;;;22.20;99.90;;;;;;5054707;28;20194;-49
2023/10/10 11:17:19;;;;;;;10.85;5.28;;;22.30;99.90;;;;;;5054617;28;20257;-49
2023/10/10 11:19:53;;;;;;;7.70;4.28;;;22.40;99.90;;;;;;5054654;28;20209;-49
2023/10/10 11:22:38;;;;;;;11.55;4.82;;;22.50;99.90;;;;;;5054742;28;20183;-49
2023/10/10 11:25:05;;;;;;;11.68;5.00;;;22.50;99.90;;;;;;5054391;28;20250;-49
2023/10/10 11:27:43;;;;;;;10.27;4.63;;;22.40;99.90;;;;;;5054623;28;20175;-50
2023/10/10 11:30:11;;;;;;;9.95;5.38;;;22.40;99.90;;;;;;5054478;28;20181;-49
2023/10/10 11:32:46;;;;;;;11.38;5.45;;;22.40;99.90;;;;;;5054322;28;20232;-49
2023/10/10 11:35:22;;;;;;;12.52;4.57;;;22.30;99.90;;;;;;5037348;28;20166;-49
2023/10/10 11:37:58;;;;;;;21.25;5.68;;;22.30;99.90;;;;;;5054491;28;20166;-52
2023/10/10 11:43:04;;;;;;;12.55;4.60;;;22.50;99.90;;;;;;5036547;28;20186;-49
2023/10/10 11:45:31;;;;;;;9.32;4.38;;;22.60;99.90;;;;;;5054375;28;20218;-49
2023/10/10 11:48:01;;;;;;;15.77;5.10;;;22.60;99.90;;;;;;5054302;28;20216;-49
2023/10/10 11:50:45;;;;;;;12.77;4.82;;;22.70;99.90;;;;;;5054465;28;20175;-52
2023/10/10 11:53:19;;;;;;;9.07;4.90;;;22.70;99.90;;;;;;5053959;28;20232;-48
2023/10/10 11:55:44;;;;;;;11.40;5.53;;;22.80;99.90;;;;;;5054040;28;20173;-49
2023/10/10 11:58:16;;;;;;;10.68;5.43;;;22.90;99.90;;;;;;5053823;28;20162;-48
2023/10/10 12:00:59;;;;;;;14.70;5.00;;;22.70;99.90;;;;;;5053991;28;20268;-48
2023/10/10 12:06:26;;;;;;;12.50;4.45;;;23.00;99.90;;;;;;5053918;28;20169;-49
2023/10/10 12:08:53;;;;;;;13.93;5.03;;;23.10;99.90;;;;;;5052706;28;20197;-49
2023/10/10 12:11:21;;;;;;;7.70;4.30;;;23.20;99.90;;;;;;5053515;28;20190;-49
2023/10/10 12:13:48;;;;;;;7.85;4.50;;;23.10;99.90;;;;;;5053473;28;20182;-50
2023/10/10 12:16:14;;;;;;;7.45;4.35;;;23.20;99.90;;;;;;5053485;28;20186;-49
2023/10/10 12:18:45;;;;;;;13.75;5.05;;;23.30;99.90;;;;;;5053365;28;20657;-49
2023/10/10 12:21:14;;;;;;;9.48;5.05;;;23.20;99.90;;;;;;5053575;28;20178;-49
2023/10/10 12:23:41;;;;;;;10.50;4.57;;;23.10;99.90;;;;;;5053318;28;20267;-49
2023/10/10 12:26:09;;;;;;;9.00;4.72;;;23.10;99.90;;;;;;5053185;28;20213;-49
2023/10/10 12:28:35;;;;;;;6.68;4.85;;;23.40;99.90;;;;;;5053461;28;20181;-49
2023/10/10 12:31:03;;;;;;;9.45;4.93;;;23.50;99.90;;;;;;5018821;28;20179;-49
2023/10/10 12:33:29;;;;;;;9.68;4.78;;;23.40;99.90;;;;;;5053285;28;20197;-46
2023/10/10 12:35:56;;;;;;;9.18;5.22;;;23.40;99.90;;;;;;5035585;28;20627;-49
2023/10/10 12:38:22;;;;;;;10.25;5.03;;;23.50;99.90;;;;;;5053338;28;20175;-51
2023/10/10 12:40:51;;;;;;;11.25;4.90;;;23.60;99.90;;;;;;5052846;28;20761;-49
2023/10/10 12:43:18;;;;;;;8.52;4.90;;;23.60;99.90;;;;;;5053090;28;20224;-49
2023/10/10 12:45:47;;;;;;;11.40;5.43;;;23.60;99.90;;;;;;5052638;28;20194;-49
2023/10/10 12:48:20;;;;;;;9.95;4.75;;;23.80;99.90;;;;;;5052741;28;20183;-49
2023/10/10 12:50:47;;;;;;;7.20;4.43;;;23.80;99.90;;;;;;5052709;28;20201;-50
2023/10/10 12:53:19;;;;;;;10.50;4.68;;;23.90;99.90;;;;;;5052720;28;20242;-49
2023/10/10 12:56:05;;;;;;;6.93;4.93;;;23.90;99.90;;;;;;5034907;28;20170;-49
2023/10/10 12:58:31;;;;;;;8.02;4.88;;;23.90;99.90;;;;;;5052541;28;20618;-49
2023/10/10 13:01:01;;;;;;;8.05;4.75;;;23.90;99.90;;;;;;5052890;28;20205;-49
2023/10/10 13:03:28;;;;;;;10.48;5.18;;;23.80;99.90;;;;;;5053088;28;20296;-49
2023/10/10 13:05:59;;;;;;;12.55;4.97;;;23.80;99.90;;;;;;5052901;28;20625;-47
2023/10/10 13:08:38;;;;;;;11.60;4.65;;;23.90;99.90;;;;;;5052947;28;20617;-49
2023/10/10 13:11:30;;;;;;;11.00;4.45;;;23.90;99.90;;;;;;5052394;28;20166;-49
2023/10/10 13:13:56;;;;;;;9.20;4.90;;;23.90;99.90;;;;;;5052864;28;20557;-53
2023/10/10 13:16:27;;;;;;;10.00;5.50;;;23.90;99.90;;;;;;5052284;28;20637;-48
2023/10/10 13:18:54;;;;;;;12.85;5.30;;;24.00;99.90;;;;;;5034021;28;20177;-48
2023/10/10 13:21:20;;;;;;;11.25;4.75;;;23.90;99.90;;;;;;5052179;28;20166;-48
2023/10/10 13:23:50;;;;;;;8.30;4.60;;;24.00;99.90;;;;;;5052164;28;20253;-49
2023/10/10 13:26:21;;;;;;;10.95;5.28;;;24.00;99.90;;;;;;5052085;28;20245;-48
2023/10/10 13:28:48;;;;;;;11.35;4.82;;;24.10;99.90;;;;;;5051940;28;20626;-49
2023/10/10 13:31:18;;;;;;;8.07;4.72;;;24.00;99.90;;;;;;5052263;28;20175;-51
2023/10/10 13:33:45;;;;;;;8.23;4.75;;;24.00;99.90;;;;;;5051964;28;20162;-49
2023/10/10 13:36:12;;;;;;;7.68;4.30;;;24.10;99.90;;;;;;5051955;28;20169;-51
2023/10/10 13:38:48;;;;;;;10.10;4.80;;;24.10;99.90;;;;;;5051903;28;20177;-49
2023/10/10 13:41:22;;;;;;;11.73;5.00;;;24.10;99.90;;;;;;5052149;28;20316;-48
2023/10/10 13:43:50;;;;;;;13.10;5.55;;;24.00;99.90;;;;;;5052129;28;20773;-48
2023/10/10 13:46:18;;;;;;;8.68;4.43;;;24.10;99.90;;;;;;5051764;28;20221;-49
2023/10/10 13:48:44;;;;;;;10.30;4.88;;;24.10;99.90;;;;;;5051982;28;20186;-48
2023/10/10 13:51:10;;;;;;;10.45;5.13;;;24.10;99.90;;;;;;5051672;28;20693;-48
2023/10/10 13:53:39;;;;;;;7.53;4.80;;;24.10;99.90;;;;;;5051897;28;20288;-49
2023/10/10 13:56:05;;;;;;;8.70;4.85;;;24.10;99.90;;;;;;5051605;28;20162;-49
2023/10/10 13:58:31;;;;;;;11.70;4.85;;;24.10;98.80;;;;;;5051602;28;20622;-50
2023/10/10 14:03:45;;;;;;;8.52;4.72;;;;;;;;;;5051449;28;20181;-49
2023/10/10 14:06:12;;;;;;;9.32;5.47;;;23.90;98.90;;;;;;5051516;28;20166;-49
2023/10/10 14:08:43;;;;;;;10.07;5.47;;;23.90;98.30;;;;;;5051665;28;20171;-48
2023/10/10 14:11:10;;;;;;;10.73;5.32;;;23.90;97.50;;;;;;5051718;28;20236;-51
2023/10/10 14:13:36;;;;;;;11.43;5.35;;;;;;;;;;5051347;28;20171;-49
2023/10/10 14:16:02;;;;;;;11.23;5.35;;;24.00;99.20;;;;;;5051293;28;20170;-50
2023/10/10 14:18:28;;;;;;;8.13;5.35;;;;;;;;;;5051592;28;20276;-49
2023/10/10 14:20:55;;;;;;;8.82;4.57;;;24.00;99.40;;;;;;5051657;28;20277;-48
2023/10/10 14:23:25;;;;;;;6.78;4.70;;;24.00;99.90;;;;;;5033672;28;20170;-49
2023/10/10 14:26:36;;;;;;;10.68;5.13;;;23.90;99.40;;;;;;5051149;28;20581;-52
2023/10/10 14:28:53;;;;;;;9.13;5.63;;;23.90;99.90;;;;;;5040302;28;20244;-49
2023/10/10 14:31:31;;;;;;;13.18;5.40;;;24.00;99.80;;;;;;5052103;28;20173;-50
2023/10/10 14:34:00;;;;;;;12.05;4.93;;;23.90;99.90;;;;;;5055954;28;20166;-50
2023/10/10 14:36:29;;;;;;;11.98;5.80;;;24.00;99.90;;;;;;5055797;28;20166;-50
2023/10/10 14:38:57;;;;;;;12.50;5.32;;;23.90;99.90;;;;;;5055617;28;20173;-50
2023/10/10 14:41:23;;;;;;;9.15;4.97;;;23.90;99.90;;;;;;5055227;28;20643;-48
2023/10/10 14:43:54;;;;;;;10.73;5.07;;;23.80;99.90;;;;;;5055065;28;20174;-50
2023/10/10 14:46:33;;;;;;;7.82;4.45;;;23.80;99.90;;;;;;5055169;28;20253;-51
2023/10/10 14:49:16;;;;;;;9.05;4.57;;;23.70;99.90;;;;;;5055103;28;20168;-51
2023/10/10 14:51:48;;;;;;;9.10;4.50;;;23.70;99.90;;;;;;5055071;28;20494;-50
2023/10/10 14:54:17;;;;;;;8.07;4.90;;;23.70;99.90;;;;;;5054757;28;20630;-52
2023/10/10 14:56:46;;;;;;;8.10;4.30;;;23.70;99.90;;;;;;5055207;28;20254;-49
2023/10/10 14:59:20;;;;;;;7.72;5.07;;;23.70;99.90;;;;;;5055027;28;20259;-51
2023/10/10 15:01:50;;;;;;;8.23;4.15;;;23.60;99.90;;;;;;5055088;28;20174;-48
2023/10/10 15:04:21;;;;;;;13.25;4.97;;;23.50;99.90;;;;;;5054818;28;20245;-48
2023/10/10 15:06:53;;;;;;;9.88;4.65;;;23.60;99.90;;;;;;5055017;28;20209;-47
2023/10/10 15:09:20;;;;;;;9.70;4.20;;;23.50;99.90;;;;;;5054894;28;20178;-48
2023/10/10 15:11:47;;;;;;;7.22;4.28;;;23.50;99.90;;;;;;5054860;28;20174;-47
2023/10/10 15:14:13;;;;;;;8.43;4.50;;;23.40;99.90;;;;;;5054754;28;20182;-47
2023/10/10 15:16:40;;;;;;;8.65;4.68;;;23.40;99.90;;;;;;5054393;28;20154;-49
2023/10/10 15:19:07;;;;;;;6.63;3.95;;;23.40;99.90;;;;;;5053874;28;20199;-47
2023/10/10 15:21:37;;;;;;;9.55;4.03;;;23.30;99.90;;;;;;5054420;28;20179;-48
2023/10/10 15:24:09;;;;;;;8.18;4.70;;;23.20;99.90;;;;;;5054139;28;20174;-48
2023/10/10 15:26:34;;;;;;;7.53;5.22;;;23.20;99.90;;;;;;5054185;28;20559;-47
2023/10/10 15:29:00;;;;;;;9.77;6.88;;;23.10;99.90;;;;;;5054140;28;20159;-47
2023/10/10 15:31:31;;;;;;;11.05;5.10;;;23.10;99.90;;;;;;5054458;28;20212;-48
2023/10/10 15:33:57;;;;;;;7.85;4.13;;;;;;;;;;5054402;28;20660;-47